createdAt,value
2018-03-14T00:00:47.604Z,998.42
2018-03-14T00:01:48.986Z,998.45
2018-03-14T00:02:50.354Z,998.46
2018-03-14T00:03:51.730Z,998.49
2018-03-14T00:04:53.107Z,998.50
2018-03-14T00:05:54.486Z,998.50
2018-03-14T00:06:55.866Z,998.48
2018-03-14T00:07:57.256Z,998.50
2018-03-14T00:08:58.639Z,998.56
2018-03-14T00:10:00.018Z,998.52
2018-03-14T00:11:01.384Z,998.52
2018-03-14T00:12:02.766Z,998.54
2018-03-14T00:13:04.138Z,998.54
2018-03-14T00:14:05.522Z,998.56
2018-03-14T00:15:06.850Z,998.55
2018-03-14T00:16:08.234Z,998.61
2018-03-14T00:17:09.615Z,998.56
2018-03-14T00:18:11.015Z,998.59
2018-03-14T00:19:12.392Z,998.60
2018-03-14T00:20:13.784Z,998.62
2018-03-14T00:21:15.166Z,998.62
2018-03-14T00:22:16.561Z,998.66
2018-03-14T00:23:17.930Z,998.66
2018-03-14T00:24:19.313Z,998.65
2018-03-14T00:25:20.696Z,998.63
2018-03-14T00:26:22.058Z,998.65
2018-03-14T00:27:23.450Z,998.67
2018-03-14T00:28:24.864Z,998.66
2018-03-14T00:29:26.258Z,998.68
2018-03-14T00:30:27.625Z,998.67
2018-03-14T00:31:29.014Z,998.67
2018-03-14T00:32:30.388Z,998.68
2018-03-14T00:33:31.782Z,998.68
2018-03-14T00:34:33.129Z,998.71
2018-03-14T00:35:34.506Z,998.71
2018-03-14T00:36:35.880Z,998.70
2018-03-14T00:37:37.265Z,998.66
2018-03-14T00:38:38.639Z,998.68
2018-03-14T00:39:40.018Z,998.70
2018-03-14T00:40:41.402Z,998.69
2018-03-14T00:41:42.775Z,998.69
2018-03-14T00:42:44.137Z,998.72
2018-03-14T00:43:45.468Z,998.68
2018-03-14T00:44:46.853Z,998.73
2018-03-14T00:45:48.227Z,998.70
2018-03-14T00:46:49.602Z,998.69
2018-03-14T00:47:50.977Z,998.73
2018-03-14T00:48:52.368Z,998.73
2018-03-14T00:49:53.746Z,998.77
2018-03-14T00:50:55.124Z,998.78
2018-03-14T00:51:56.513Z,998.76
2018-03-14T00:52:57.900Z,998.74
2018-03-14T00:53:59.272Z,998.77
2018-03-14T00:55:00.678Z,998.77
2018-03-14T00:56:02.040Z,998.78
2018-03-14T00:57:03.426Z,998.79
2018-03-14T00:58:04.822Z,998.81
2018-03-14T00:59:07.067Z,998.83
2018-03-14T01:00:08.459Z,998.81
2018-03-14T01:01:09.832Z,998.82
2018-03-14T01:02:11.172Z,998.84
2018-03-14T01:03:12.567Z,998.84
2018-03-14T01:04:13.935Z,998.85
2018-03-14T01:05:15.309Z,998.85
2018-03-14T01:06:16.701Z,998.86
2018-03-14T01:07:18.069Z,998.91
2018-03-14T01:08:19.453Z,998.91
2018-03-14T01:09:20.827Z,998.92
2018-03-14T01:10:22.201Z,998.92
2018-03-14T01:11:23.580Z,998.91
2018-03-14T01:12:24.956Z,998.91
2018-03-14T01:13:26.341Z,998.92
2018-03-14T01:14:27.733Z,998.95
2018-03-14T01:15:29.843Z,998.93
2018-03-14T01:16:31.234Z,998.94
2018-03-14T01:17:32.609Z,998.92
2018-03-14T01:18:33.986Z,998.96
2018-03-14T01:19:35.375Z,998.96
2018-03-14T01:20:36.743Z,998.93
2018-03-14T01:21:38.126Z,998.92
2018-03-14T01:22:39.502Z,998.94
2018-03-14T01:23:40.886Z,998.96
2018-03-14T01:24:42.268Z,998.98
2018-03-14T01:25:43.656Z,998.97
2018-03-14T01:26:45.022Z,998.94
2018-03-14T01:27:46.438Z,998.98
2018-03-14T01:28:47.803Z,998.94
2018-03-14T01:29:49.178Z,998.97
2018-03-14T01:30:50.565Z,998.98
2018-03-14T01:31:51.933Z,998.98
2018-03-14T01:32:53.303Z,998.94
2018-03-14T01:33:55.624Z,998.98
2018-03-14T01:34:56.997Z,998.95
2018-03-14T01:35:58.377Z,998.97
2018-03-14T01:37:00.681Z,998.97
2018-03-14T01:38:02.067Z,998.98
2018-03-14T01:39:03.431Z,998.95
2018-03-14T01:40:04.772Z,999.01
2018-03-14T01:41:06.112Z,998.95
2018-03-14T01:42:07.493Z,998.98
2018-03-14T01:43:08.869Z,999.00
2018-03-14T01:44:10.248Z,998.99
2018-03-14T01:45:11.618Z,998.99
2018-03-14T01:46:12.986Z,998.96
2018-03-14T01:47:14.360Z,999.05
2018-03-14T01:48:15.734Z,999.04
2018-03-14T01:49:17.616Z,999.02
2018-03-14T01:50:19.002Z,999.05
2018-03-14T01:51:20.385Z,999.11
2018-03-14T01:52:21.754Z,999.09
2018-03-14T01:53:23.136Z,999.10
2018-03-14T01:54:24.500Z,999.09
2018-03-14T01:55:25.872Z,999.12
2018-03-14T01:56:27.251Z,999.09
2018-03-14T01:57:28.627Z,999.09
2018-03-14T01:58:30.000Z,999.12
2018-03-14T01:59:31.379Z,999.13
2018-03-14T02:00:32.766Z,999.16
2018-03-14T02:01:34.141Z,999.17
2018-03-14T02:02:35.519Z,999.16
2018-03-14T02:03:36.890Z,999.16
2018-03-14T02:04:38.269Z,999.18
2018-03-14T02:05:39.659Z,999.19
2018-03-14T02:06:41.017Z,999.14
2018-03-14T02:07:42.395Z,999.16
2018-03-14T02:08:43.767Z,999.19
2018-03-14T02:09:45.156Z,999.16
2018-03-14T02:10:46.528Z,999.22
2018-03-14T02:11:47.908Z,999.20
2018-03-14T02:12:49.293Z,999.21
2018-03-14T02:13:50.680Z,999.23
2018-03-14T02:14:52.046Z,999.25
2018-03-14T02:15:53.426Z,999.26
2018-03-14T02:16:54.802Z,999.27
2018-03-14T02:17:56.172Z,999.25
2018-03-14T02:18:57.562Z,999.31
2018-03-14T02:19:58.948Z,999.28
2018-03-14T02:21:00.324Z,999.34
2018-03-14T02:22:01.690Z,999.33
2018-03-14T02:23:03.080Z,999.37
2018-03-14T02:24:04.464Z,999.37
2018-03-14T02:25:05.871Z,999.41
2018-03-14T02:26:07.267Z,999.38
2018-03-14T02:27:08.634Z,999.42
2018-03-14T02:28:10.025Z,999.42
2018-03-14T02:29:11.448Z,999.43
2018-03-14T02:30:12.791Z,999.38
2018-03-14T02:31:14.173Z,999.39
2018-03-14T02:32:15.547Z,999.39
2018-03-14T02:33:16.924Z,999.46
2018-03-14T02:34:18.295Z,999.44
2018-03-14T02:35:19.663Z,999.45
2018-03-14T02:36:21.043Z,999.42
2018-03-14T02:37:22.426Z,999.45
2018-03-14T02:38:23.806Z,999.47
2018-03-14T02:39:25.189Z,999.46
2018-03-14T02:40:26.564Z,999.49
2018-03-14T02:41:27.978Z,999.47
2018-03-14T02:42:29.354Z,999.52
2018-03-14T02:43:30.710Z,999.50
2018-03-14T02:44:32.093Z,999.54
2018-03-14T02:45:33.437Z,999.53
2018-03-14T02:46:34.810Z,999.52
2018-03-14T02:47:36.187Z,999.54
2018-03-14T02:48:37.561Z,999.56
2018-03-14T02:49:38.926Z,999.59
2018-03-14T02:50:40.306Z,999.59
2018-03-14T02:51:41.682Z,999.56
2018-03-14T02:52:43.063Z,999.63
2018-03-14T02:53:44.446Z,999.62
2018-03-14T02:54:45.820Z,999.63
2018-03-14T02:55:47.187Z,999.66
2018-03-14T02:56:48.560Z,999.68
2018-03-14T02:57:49.939Z,999.71
2018-03-14T02:58:51.317Z,999.66
2018-03-14T02:59:52.695Z,999.67
2018-03-14T03:00:54.061Z,999.70
2018-03-14T03:01:55.446Z,999.71
2018-03-14T03:02:56.829Z,999.79
2018-03-14T03:03:58.205Z,999.75
2018-03-14T03:04:59.587Z,999.79
2018-03-14T03:06:00.955Z,999.79
2018-03-14T03:07:02.339Z,999.77
2018-03-14T03:08:03.724Z,999.78
2018-03-14T03:09:05.095Z,999.81
2018-03-14T03:10:06.476Z,999.77
2018-03-14T03:11:07.867Z,999.79
2018-03-14T03:12:09.242Z,999.83
2018-03-14T03:13:10.616Z,999.79
2018-03-14T03:14:12.000Z,999.83
2018-03-14T03:15:13.362Z,999.85
2018-03-14T03:16:14.740Z,999.84
2018-03-14T03:17:16.117Z,999.83
2018-03-14T03:18:17.491Z,999.87
2018-03-14T03:19:18.869Z,999.85
2018-03-14T03:20:20.254Z,999.90
2018-03-14T03:21:21.617Z,999.89
2018-03-14T03:22:22.995Z,999.91
2018-03-14T03:23:25.237Z,999.91
2018-03-14T03:24:26.614Z,999.92
2018-03-14T03:25:27.987Z,999.92
2018-03-14T03:26:29.373Z,999.96
2018-03-14T03:27:30.745Z,999.98
2018-03-14T03:28:32.123Z,999.97
2018-03-14T03:29:33.511Z,999.95
2018-03-14T03:30:34.884Z,999.92
2018-03-14T03:31:36.266Z,999.96
2018-03-14T03:32:37.641Z,999.99
2018-03-14T03:33:39.016Z,999.99
2018-03-14T03:34:40.394Z,1000.00
2018-03-14T03:35:41.780Z,1000.06
2018-03-14T03:36:43.153Z,1000.03
2018-03-14T03:37:44.534Z,1000.04
2018-03-14T03:38:45.905Z,1000.08
2018-03-14T03:39:47.290Z,1000.08
2018-03-14T03:40:48.674Z,1000.11
2018-03-14T03:41:50.044Z,1000.10
2018-03-14T03:42:51.430Z,1000.15
2018-03-14T03:43:52.812Z,1000.16
2018-03-14T03:44:54.194Z,1000.12
2018-03-14T03:45:55.585Z,1000.13
2018-03-14T03:46:56.960Z,1000.14
2018-03-14T03:47:58.342Z,1000.14
2018-03-14T03:48:59.704Z,1000.17
2018-03-14T03:50:01.077Z,1000.18
2018-03-14T03:51:02.479Z,1000.20
2018-03-14T03:52:03.866Z,1000.19
2018-03-14T03:53:05.254Z,1000.18
2018-03-14T03:54:06.634Z,1000.22
2018-03-14T03:55:08.023Z,1000.23
2018-03-14T03:56:09.397Z,1000.27
2018-03-14T03:57:10.774Z,1000.25
2018-03-14T03:58:12.165Z,1000.30
2018-03-14T03:59:13.535Z,1000.27
2018-03-14T04:00:14.923Z,1000.28
2018-03-14T04:01:16.313Z,1000.33
2018-03-14T04:02:17.707Z,1000.29
2018-03-14T04:03:19.094Z,1000.30
2018-03-14T04:04:20.469Z,1000.36
2018-03-14T04:05:21.851Z,1000.36
2018-03-14T04:06:23.224Z,1000.37
2018-03-14T04:07:24.612Z,1000.34
2018-03-14T04:08:25.996Z,1000.39
2018-03-14T04:09:27.391Z,1000.44
2018-03-14T04:10:28.788Z,1000.44
2018-03-14T04:11:30.165Z,1000.44
2018-03-14T04:12:31.544Z,1000.43
2018-03-14T04:13:32.921Z,1000.47
2018-03-14T04:14:34.340Z,1000.45
2018-03-14T04:15:35.697Z,1000.46
2018-03-14T04:16:37.097Z,1000.46
2018-03-14T04:17:38.472Z,1000.48
2018-03-14T04:18:39.856Z,1000.56
2018-03-14T04:19:41.224Z,1000.57
2018-03-14T04:20:42.623Z,1000.53
2018-03-14T04:21:44.005Z,1000.56
2018-03-14T04:22:45.394Z,1000.60
2018-03-14T04:23:46.803Z,1000.56
2018-03-14T04:24:48.183Z,1000.60
2018-03-14T04:25:49.590Z,1000.57
2018-03-14T04:26:50.964Z,1000.59
2018-03-14T04:27:52.358Z,1000.60
2018-03-14T04:28:53.741Z,1000.57
2018-03-14T04:29:55.114Z,1000.61
2018-03-14T04:30:56.498Z,1000.61
2018-03-14T04:31:58.677Z,1000.59
2018-03-14T04:33:00.054Z,1000.64
2018-03-14T04:34:01.424Z,1000.65
2018-03-14T04:35:02.890Z,1000.65
2018-03-14T04:36:04.209Z,1000.65
2018-03-14T04:37:05.581Z,1000.67
2018-03-14T04:38:06.962Z,1000.66
2018-03-14T04:39:08.340Z,1000.66
2018-03-14T04:40:09.722Z,1000.68
2018-03-14T04:41:11.105Z,1000.69
2018-03-14T04:42:12.472Z,1000.75
2018-03-14T04:43:13.853Z,1000.73
2018-03-14T04:44:15.234Z,1000.77
2018-03-14T04:45:16.614Z,1000.79
2018-03-14T04:46:18.000Z,1000.79
2018-03-14T04:47:19.388Z,1000.77
2018-03-14T04:48:20.785Z,1000.77
2018-03-14T04:49:22.141Z,1000.75
2018-03-14T04:50:23.529Z,1000.78
2018-03-14T04:51:24.909Z,1000.73
2018-03-14T04:52:26.285Z,1000.74
2018-03-14T04:53:27.659Z,1000.78
2018-03-14T04:54:29.765Z,1000.76
2018-03-14T04:55:31.140Z,1000.77
2018-03-14T04:56:32.556Z,1000.79
2018-03-14T04:57:33.961Z,1000.84
2018-03-14T04:58:35.328Z,1000.80
2018-03-14T04:59:36.719Z,1000.82
2018-03-14T05:00:38.104Z,1000.84
2018-03-14T05:01:39.481Z,1000.85
2018-03-14T05:02:40.865Z,1000.89
2018-03-14T05:03:43.016Z,1000.89
2018-03-14T05:04:44.392Z,1000.89
2018-03-14T05:05:45.770Z,1000.92
2018-03-14T05:06:47.138Z,1000.92
2018-03-14T05:07:48.524Z,1000.93
2018-03-14T05:08:49.910Z,1000.92
2018-03-14T05:09:51.293Z,1000.95
2018-03-14T05:10:52.670Z,1000.95
2018-03-14T05:11:54.044Z,1000.95
2018-03-14T05:12:55.413Z,1000.98
2018-03-14T05:13:56.787Z,1001.01
2018-03-14T05:14:58.168Z,1001.04
2018-03-14T05:15:59.543Z,1001.06
2018-03-14T05:17:00.911Z,1001.00
2018-03-14T05:18:02.277Z,1001.07
2018-03-14T05:19:03.661Z,1001.10
2018-03-14T05:20:05.042Z,1001.09
2018-03-14T05:21:06.440Z,1001.11
2018-03-14T05:22:07.819Z,1001.10
2018-03-14T05:23:09.203Z,1001.13
2018-03-14T05:24:10.586Z,1001.17
2018-03-14T05:25:11.967Z,1001.17
2018-03-14T05:26:13.336Z,1001.15
2018-03-14T05:27:14.732Z,1001.17
2018-03-14T05:28:16.746Z,1001.21
2018-03-14T05:29:18.124Z,1001.21
2018-03-14T05:30:19.508Z,1001.20
2018-03-14T05:31:20.906Z,1001.18
2018-03-14T05:32:22.288Z,1001.25
2018-03-14T05:33:23.695Z,1001.27
2018-03-14T05:34:25.092Z,1001.24
2018-03-14T05:35:26.470Z,1001.27
2018-03-14T05:36:27.844Z,1001.28
2018-03-14T05:37:29.234Z,1001.26
2018-03-14T05:38:30.604Z,1001.30
2018-03-14T05:39:32.003Z,1001.29
2018-03-14T05:40:33.403Z,1001.29
2018-03-14T05:41:34.783Z,1001.30
2018-03-14T05:42:36.166Z,1001.31
2018-03-14T05:43:37.547Z,1001.35
2018-03-14T05:44:38.919Z,1001.30
2018-03-14T05:45:40.295Z,1001.34
2018-03-14T05:46:41.697Z,1001.33
2018-03-14T05:47:43.090Z,1001.35
2018-03-14T05:48:44.475Z,1001.36
2018-03-14T05:49:45.859Z,1001.39
2018-03-14T05:50:47.239Z,1001.40
2018-03-14T05:51:48.622Z,1001.42
2018-03-14T05:52:50.009Z,1001.44
2018-03-14T05:53:51.394Z,1001.45
2018-03-14T05:54:52.781Z,1001.43
2018-03-14T05:55:54.154Z,1001.42
2018-03-14T05:56:55.534Z,1001.41
2018-03-14T05:57:56.905Z,1001.46
2018-03-14T05:58:58.295Z,1001.44
2018-03-14T05:59:59.681Z,1001.44
2018-03-14T06:01:01.060Z,1001.41
2018-03-14T06:02:02.442Z,1001.48
2018-03-14T06:03:03.828Z,1001.45
2018-03-14T06:04:05.217Z,1001.49
2018-03-14T06:05:06.608Z,1001.50
2018-03-14T06:06:07.990Z,1001.53
2018-03-14T06:07:10.027Z,1001.53
2018-03-14T06:08:11.393Z,1001.53
2018-03-14T06:09:12.768Z,1001.59
2018-03-14T06:10:14.146Z,1001.59
2018-03-14T06:11:15.520Z,1001.60
2018-03-14T06:12:16.905Z,1001.58
2018-03-14T06:13:18.290Z,1001.61
2018-03-14T06:14:19.667Z,1001.65
2018-03-14T06:15:21.069Z,1001.64
2018-03-14T06:16:22.463Z,1001.66
2018-03-14T06:17:24.557Z,1001.69
2018-03-14T06:18:25.925Z,1001.68
2018-03-14T06:19:27.320Z,1001.67
2018-03-14T06:20:28.683Z,1001.71
2018-03-14T06:21:30.061Z,1001.69
2018-03-14T06:22:31.457Z,1001.74
2018-03-14T06:23:32.824Z,1001.77
2018-03-14T06:24:34.198Z,1001.78
2018-03-14T06:25:35.579Z,1001.80
2018-03-14T06:26:36.956Z,1001.78
2018-03-14T06:27:38.340Z,1001.83
2018-03-14T06:28:39.728Z,1001.82
2018-03-14T06:29:41.102Z,1001.81
2018-03-14T06:30:42.474Z,1001.85
2018-03-14T06:31:43.872Z,1001.82
2018-03-14T06:32:45.246Z,1001.85
2018-03-14T06:33:47.356Z,1001.84
2018-03-14T06:34:48.733Z,1001.87
2018-03-14T06:35:50.118Z,1001.92
2018-03-14T06:36:51.507Z,1001.91
2018-03-14T06:37:53.781Z,1001.92
2018-03-14T06:38:55.175Z,1001.94
2018-03-14T06:39:56.550Z,1001.93
2018-03-14T17:44:14.553Z,1005.63
2018-03-14T17:45:15.936Z,1005.68
2018-03-14T17:46:17.330Z,1005.63
2018-03-14T17:47:18.619Z,1005.63
2018-03-14T17:48:19.996Z,1005.64
2018-03-14T17:49:21.381Z,1005.61
2018-03-14T17:50:22.773Z,1005.60
2018-03-14T17:51:24.149Z,1005.63
2018-03-14T17:52:25.527Z,1005.66
2018-03-14T17:53:26.905Z,1005.65
2018-03-14T17:54:28.291Z,1005.70
2018-03-14T17:55:29.665Z,1005.69
2018-03-14T17:56:31.044Z,1005.67
2018-03-14T17:57:32.381Z,1005.68
2018-03-14T17:58:33.722Z,1005.66
2018-03-14T17:59:35.696Z,1005.69
2018-03-14T18:00:37.085Z,1005.71
2018-03-14T18:01:38.424Z,1005.73
2018-03-14T18:02:39.802Z,1005.68
2018-03-14T18:03:41.173Z,1005.71
2018-03-14T18:04:42.561Z,1005.69
2018-03-14T18:05:43.900Z,1005.71
2018-03-14T18:06:45.319Z,1005.71
2018-03-14T18:07:46.686Z,1005.69
2018-03-14T18:08:48.084Z,1005.66
2018-03-14T18:09:49.480Z,1005.66
2018-03-14T18:10:50.801Z,1005.66
2018-03-14T18:11:52.193Z,1005.68
2018-03-14T18:12:53.531Z,1005.67
2018-03-14T18:13:54.867Z,1005.68
2018-03-14T18:14:56.216Z,1005.68
2018-03-14T18:15:57.577Z,1005.72
2018-03-14T18:16:58.898Z,1005.72
2018-03-14T18:18:00.286Z,1005.74
2018-03-14T18:19:01.670Z,1005.72
2018-03-14T18:20:03.062Z,1005.77
2018-03-14T18:21:04.443Z,1005.73
2018-03-14T18:22:05.815Z,1005.78
2018-03-14T18:23:07.220Z,1005.77
2018-03-14T18:24:08.613Z,1005.71
2018-03-14T18:25:10.021Z,1005.78
2018-03-14T18:26:11.385Z,1005.75
2018-03-14T18:27:13.632Z,1005.77
2018-03-14T18:28:14.998Z,1005.72
2018-03-14T18:29:16.331Z,1005.73
2018-03-14T18:30:17.661Z,1005.65
2018-03-14T18:31:19.002Z,1005.69
2018-03-14T18:32:21.152Z,1005.70
2018-03-14T18:33:22.720Z,1005.73
2018-03-14T18:34:24.061Z,1005.69
2018-03-14T18:35:25.435Z,1005.77
2018-03-14T18:36:26.817Z,1005.73
2018-03-14T18:37:28.200Z,1005.72
2018-03-14T18:38:30.400Z,1005.76
2018-03-14T18:39:31.774Z,1005.80
2018-03-14T18:40:33.154Z,1005.78
2018-03-14T18:41:35.209Z,1005.79
2018-03-14T18:42:36.617Z,1005.78
2018-03-14T18:43:37.964Z,1005.82
2018-03-14T18:44:39.339Z,1005.81
2018-03-14T18:45:40.721Z,1005.78
2018-03-14T18:46:42.096Z,1005.75
2018-03-14T18:47:43.476Z,1005.79
2018-03-14T18:48:44.851Z,1005.80
2018-03-14T18:49:46.234Z,1005.82
2018-03-14T18:50:47.608Z,1005.80
2018-03-14T18:51:48.983Z,1005.80
2018-03-14T18:52:50.359Z,1005.80
2018-03-14T18:53:51.748Z,1005.81
2018-03-14T18:54:53.134Z,1005.82
2018-03-14T18:55:54.483Z,1005.82
2018-03-14T18:56:55.866Z,1005.80
2018-03-14T18:57:57.258Z,1005.85
2018-03-14T18:58:58.642Z,1005.84
2018-03-14T19:00:00.037Z,1005.80
2018-03-14T19:01:01.422Z,1005.82
2018-03-14T19:02:02.817Z,1005.88
2018-03-14T19:03:04.998Z,1005.84
2018-03-14T19:04:06.339Z,1005.86
2018-03-14T19:05:07.710Z,1005.81
2018-03-14T19:06:09.096Z,1005.85
2018-03-14T19:07:10.478Z,1005.88
2018-03-14T19:08:11.866Z,1005.84
2018-03-14T19:09:13.244Z,1005.89
2018-03-14T19:10:14.578Z,1005.88
2018-03-14T19:11:15.939Z,1005.92
2018-03-14T19:12:17.279Z,1005.86
2018-03-14T19:13:18.627Z,1005.94
2018-03-14T19:14:19.972Z,1005.90
2018-03-14T19:15:21.360Z,1005.89
2018-03-14T19:16:22.707Z,1005.90
2018-03-14T19:17:24.089Z,1005.84
2018-03-14T19:18:25.481Z,1005.82
2018-03-14T19:19:26.887Z,1005.83
2018-03-14T19:20:28.279Z,1005.81
2018-03-14T19:21:29.674Z,1005.79
2018-03-14T19:22:32.896Z,1005.80
2018-03-14T19:23:34.216Z,1005.80
2018-03-14T19:24:35.591Z,1005.83
2018-03-14T19:25:36.989Z,1005.75
2018-03-14T19:26:38.331Z,1005.81
2018-03-14T19:27:39.813Z,1005.84
2018-03-14T19:28:41.110Z,1005.84
2018-03-14T19:29:42.496Z,1005.80
2018-03-14T19:30:43.905Z,1005.83
2018-03-14T19:31:45.298Z,1005.80
2018-03-14T19:32:46.673Z,1005.81
2018-03-14T19:33:48.204Z,1005.77
2018-03-14T19:34:50.208Z,1005.77
2018-03-14T19:35:52.333Z,1005.79
2018-03-14T19:36:53.740Z,1005.79
2018-03-14T19:37:55.131Z,1005.84
2018-03-14T19:38:56.552Z,1005.79
2018-03-14T19:39:57.907Z,1005.79
2018-03-14T19:41:00.833Z,1005.82
2018-03-14T19:42:02.207Z,1005.84
2018-03-14T19:43:03.629Z,1005.84
2018-03-14T19:44:05.087Z,1005.85
2018-03-14T19:45:08.006Z,1005.86
2018-03-14T19:46:09.445Z,1005.89
2018-03-14T19:47:10.821Z,1005.89
2018-03-14T19:48:12.216Z,1005.87
2018-03-14T19:49:13.614Z,1005.89
2018-03-14T19:50:15.752Z,1005.90
2018-03-14T19:51:18.205Z,1005.92
2018-03-14T19:52:19.641Z,1005.87
2018-03-14T19:53:21.029Z,1005.88
2018-03-14T19:54:22.473Z,1005.87
2018-03-14T19:55:24.331Z,1005.89
2018-03-14T19:56:25.729Z,1005.88
2018-03-14T19:57:27.720Z,1005.92
2018-03-14T19:58:29.137Z,1005.91
2018-03-14T19:59:31.103Z,1005.90
2018-03-14T20:00:31.880Z,1005.96
2018-03-14T20:01:33.294Z,1005.95
2018-03-14T20:02:35.508Z,1005.98
2018-03-14T20:03:36.919Z,1006.00
2018-03-14T20:04:38.298Z,1005.98
2018-03-14T20:05:39.701Z,1005.98
2018-03-14T20:06:41.125Z,1005.95
2018-03-14T20:07:42.608Z,1005.95
2018-03-14T20:08:44.037Z,1005.92
2018-03-14T20:09:46.016Z,1005.96
2018-03-14T20:10:47.392Z,1005.94
2018-03-14T20:11:48.775Z,1005.95
2018-03-14T20:12:51.716Z,1005.92
2018-03-14T20:13:53.143Z,1005.94
2018-03-14T20:14:55.513Z,1005.97
2018-03-14T20:15:57.786Z,1005.96
2018-03-14T20:16:59.840Z,1005.93
2018-03-14T20:18:01.233Z,1005.90
2018-03-14T20:19:03.468Z,1005.90
2018-03-14T20:20:07.190Z,1005.89
2018-03-14T20:21:08.572Z,1005.89
2018-03-14T20:22:09.960Z,1005.85
2018-03-14T20:23:12.985Z,1005.86
2018-03-14T20:24:14.924Z,1005.82
2018-03-14T20:25:16.307Z,1005.85
2018-03-14T20:26:17.735Z,1005.81
2018-03-14T20:27:19.141Z,1005.80
2018-03-14T20:28:20.560Z,1005.82
2018-03-14T20:29:21.977Z,1005.76
2018-03-14T20:30:23.409Z,1005.84
2018-03-14T20:31:24.799Z,1005.83
2018-03-14T20:32:27.260Z,1005.86
2018-03-14T20:33:28.680Z,1005.78
2018-03-14T20:34:30.130Z,1005.82
2018-03-14T20:35:32.161Z,1005.80
2018-03-14T20:36:33.513Z,1005.83
2018-03-14T20:37:34.943Z,1005.82
2018-03-14T20:38:36.315Z,1005.83
2018-03-14T20:39:37.695Z,1005.85
2018-03-14T20:40:39.082Z,1005.87
2018-03-14T20:41:40.494Z,1005.87
2018-03-14T20:42:41.999Z,1005.90
2018-03-14T20:43:44.282Z,1005.90
2018-03-14T20:44:45.761Z,1005.89
2018-03-14T20:45:47.181Z,1005.88
2018-03-14T20:46:48.587Z,1005.90
2018-03-14T20:47:49.990Z,1005.93
2018-03-14T20:48:51.413Z,1005.93
2018-03-14T20:49:52.790Z,1005.93
2018-03-14T20:50:54.197Z,1005.96
2018-03-14T20:51:55.664Z,1005.97
2018-03-14T20:52:57.076Z,1005.98
2018-03-14T20:53:58.455Z,1006.03
2018-03-14T20:54:59.875Z,1006.02
2018-03-14T20:56:01.369Z,1006.02
2018-03-14T20:57:02.657Z,1006.00
2018-03-14T20:58:04.074Z,1005.98
2018-03-14T20:59:05.492Z,1006.03
2018-03-14T21:00:06.935Z,1006.03
2018-03-14T21:01:08.268Z,1006.00
2018-03-14T21:02:09.628Z,1006.03
2018-03-14T21:03:10.973Z,1006.01
2018-03-14T21:04:12.362Z,1006.00
2018-03-14T21:05:13.763Z,1005.98
2018-03-14T21:06:15.150Z,1005.98
2018-03-14T21:07:16.561Z,1005.97
2018-03-14T21:08:17.954Z,1006.01
2018-03-14T21:09:19.383Z,1006.02
2018-03-14T21:10:20.841Z,1006.00
2018-03-14T21:11:22.804Z,1006.02
2018-03-14T21:12:24.214Z,1006.03
2018-03-14T21:13:25.797Z,1006.01
2018-03-14T21:14:27.173Z,1006.03
2018-03-14T21:15:28.545Z,1005.99
2018-03-14T21:16:29.918Z,1006.02
2018-03-14T21:17:31.350Z,1005.99
2018-03-14T21:18:32.724Z,1005.99
2018-03-14T21:19:34.099Z,1005.96
2018-03-14T21:20:35.482Z,1005.98
2018-03-14T21:21:36.871Z,1006.01
2018-03-14T21:22:38.268Z,1006.01
2018-03-14T21:23:39.649Z,1005.99
2018-03-14T21:24:41.042Z,1005.99
2018-03-14T21:25:42.431Z,1006.00
2018-03-14T21:26:44.692Z,1005.98
2018-03-14T21:27:46.076Z,1005.95
2018-03-14T21:28:47.451Z,1005.96
2018-03-14T21:29:48.825Z,1005.93
2018-03-14T21:30:50.220Z,1005.96
2018-03-14T21:31:51.581Z,1005.94
2018-03-14T21:32:52.959Z,1005.97
2018-03-14T21:33:54.467Z,1005.91
2018-03-14T21:34:55.856Z,1005.96
2018-03-14T21:35:57.229Z,1005.95
2018-03-14T21:36:58.614Z,1005.96
2018-03-14T21:37:59.995Z,1005.98
2018-03-14T21:39:01.361Z,1005.96
2018-03-14T21:40:02.744Z,1005.96
2018-03-14T21:41:04.145Z,1005.97
2018-03-14T21:42:05.491Z,1005.97
2018-03-14T21:43:06.872Z,1005.93
2018-03-14T21:44:08.313Z,1005.93
2018-03-14T21:45:09.684Z,1005.93
2018-03-14T21:46:11.057Z,1005.96
2018-03-14T21:47:12.431Z,1005.92
2018-03-14T21:48:13.798Z,1005.95
2018-03-14T21:49:15.196Z,1005.92
2018-03-14T21:50:16.608Z,1005.90
2018-03-14T21:51:17.941Z,1005.90
2018-03-14T21:52:19.316Z,1005.90
2018-03-14T21:53:20.691Z,1005.89
2018-03-14T21:54:22.147Z,1005.86
2018-03-14T21:55:23.449Z,1005.87
2018-03-14T21:56:24.883Z,1005.90
2018-03-14T21:57:26.246Z,1005.89
2018-03-14T21:58:27.632Z,1005.90
2018-03-14T21:59:29.022Z,1005.85
2018-03-14T22:00:30.398Z,1005.87
2018-03-14T22:01:31.772Z,1005.87
2018-03-14T22:02:33.157Z,1005.85
2018-03-14T22:03:34.545Z,1005.85
2018-03-14T22:04:35.914Z,1005.84
2018-03-14T22:05:37.287Z,1005.83
2018-03-14T22:06:38.662Z,1005.83
2018-03-14T22:07:40.053Z,1005.80
2018-03-14T22:08:41.430Z,1005.82
2018-03-14T22:09:42.804Z,1005.77
2018-03-14T22:10:44.680Z,1005.77
2018-03-14T22:11:46.061Z,1005.76
2018-03-14T22:12:47.501Z,1005.71
2018-03-14T22:13:51.428Z,1005.71
2018-03-14T22:14:52.782Z,1005.74
2018-03-14T22:15:54.170Z,1005.72
2018-03-14T22:16:55.543Z,1005.68
2018-03-14T22:17:57.986Z,1005.68
2018-03-14T22:19:05.972Z,1005.65
2018-03-14T22:20:22.280Z,1005.61
2018-03-14T22:21:24.611Z,1005.63
2018-03-14T22:22:27.145Z,1005.61
2018-03-14T22:23:28.545Z,1005.61
2018-03-14T22:24:29.938Z,1005.60
2018-03-14T22:25:32.811Z,1005.56
2018-03-14T22:26:46.484Z,1005.58
2018-03-14T22:27:47.863Z,1005.56
2018-03-14T22:29:00.624Z,1005.56
2018-03-14T22:30:03.651Z,1005.55
2018-03-14T22:31:05.034Z,1005.54
2018-03-14T22:32:06.416Z,1005.51
2018-03-14T22:33:07.794Z,1005.51
2018-03-14T22:34:09.164Z,1005.53
2018-03-14T22:35:10.545Z,1005.52
2018-03-14T22:36:11.929Z,1005.54
2018-03-14T22:37:13.333Z,1005.51
2018-03-14T22:38:14.721Z,1005.55
2018-03-14T22:39:19.200Z,1005.57
2018-03-14T22:40:20.510Z,1005.54
2018-03-14T22:41:21.897Z,1005.55
2018-03-14T22:42:23.264Z,1005.51
2018-03-14T22:43:25.113Z,1005.58
2018-03-14T22:44:26.502Z,1005.53
2018-03-14T22:45:27.875Z,1005.54
2018-03-14T22:46:29.949Z,1005.53
2018-03-14T22:47:32.462Z,1005.54
2018-03-14T22:48:33.820Z,1005.55
2018-03-14T22:49:35.196Z,1005.52
2018-03-14T22:50:36.582Z,1005.56
2018-03-14T22:51:37.970Z,1005.54
2018-03-14T22:52:39.396Z,1005.55
2018-03-14T22:53:40.723Z,1005.61
2018-03-14T22:54:42.101Z,1005.57
2018-03-14T22:55:43.479Z,1005.56
2018-03-14T22:56:44.852Z,1005.58
2018-03-14T22:57:46.227Z,1005.59
2018-03-14T22:58:48.291Z,1005.56
2018-03-14T22:59:49.659Z,1005.53
2018-03-14T23:00:51.574Z,1005.53
2018-03-14T23:01:52.906Z,1005.54
2018-03-14T23:02:54.301Z,1005.50
2018-03-14T23:03:55.687Z,1005.51
2018-03-14T23:04:57.053Z,1005.52
2018-03-14T23:05:58.435Z,1005.50
2018-03-14T23:06:59.811Z,1005.51
2018-03-14T23:08:01.193Z,1005.48
2018-03-14T23:09:02.573Z,1005.50
2018-03-14T23:10:03.954Z,1005.45
2018-03-14T23:11:05.325Z,1005.47
2018-03-14T23:12:06.705Z,1005.44
2018-03-14T23:13:08.091Z,1005.44
2018-03-14T23:14:09.481Z,1005.42
2018-03-14T23:15:10.862Z,1005.42
2018-03-14T23:16:12.242Z,1005.42
2018-03-14T23:17:13.618Z,1005.42
2018-03-14T23:18:15.018Z,1005.45
2018-03-14T23:19:16.392Z,1005.37
2018-03-14T23:20:17.768Z,1005.37
2018-03-14T23:21:19.148Z,1005.39
2018-03-14T23:22:20.550Z,1005.34
2018-03-14T23:23:21.933Z,1005.35
2018-03-14T23:24:23.370Z,1005.36
2018-03-14T23:25:24.820Z,1005.34
2018-03-14T23:26:26.226Z,1005.33
2018-03-14T23:27:27.697Z,1005.36
2018-03-14T23:28:29.139Z,1005.38
2018-03-14T23:29:30.567Z,1005.35
2018-03-14T23:30:31.965Z,1005.38
2018-03-14T23:31:33.365Z,1005.43
2018-03-14T23:32:34.808Z,1005.39
2018-03-14T23:33:36.181Z,1005.39
2018-03-14T23:34:37.566Z,1005.43